Time,TemperatureF,DewpointF,PressureIn,WindDirection,WindDirectionDegrees,WindSpeedMPH,WindSpeedGustMPH,Humidity,HourlyPrecipIn,Conditions,Clouds,dailyrainin,SoftwareType,DateUTC
2013-02-04 00:12:00,9.1,4.7,29.83,NW,315,0.0,-999.0,82,-99.99,,,0.00,Acu-Link.com,2013-02-04 06:12:00,
2013-02-04 00:27:00,9.1,4.7,29.83,NW,315,2.2,-999.0,82,-99.99,,,0.00,Acu-Link.com,2013-02-04 06:27:00,
2013-02-04 00:42:00,8.8,4.2,29.83,West,270,2.7,-999.0,81,-99.99,,,0.00,Acu-Link.com,2013-02-04 06:42:00,
2013-02-04 00:57:00,8.2,3.6,29.83,WSW,247,0.0,-999.0,81,-99.99,,,0.00,Acu-Link.com,2013-02-04 06:57:00,
2013-02-04 01:13:00,7.9,3.3,29.83,North,0,2.2,-999.0,81,-99.99,,,0.00,Acu-Link.com,2013-02-04 07:13:00,
2013-02-04 01:28:00,7.5,2.9,29.84,NE,45,0.0,-999.0,81,-99.99,,,0.00,Acu-Link.com,2013-02-04 07:28:00,
2013-02-04 01:43:00,7.5,3.2,29.84,West,270,0.0,-999.0,82,-99.99,,,0.00,Acu-Link.com,2013-02-04 07:43:00,
2013-02-04 01:58:00,7.5,3.2,29.85,NNW,337,0.0,-999.0,82,-99.99,,,0.00,Acu-Link.com,2013-02-04 07:58:00,
2013-02-04 02:13:00,7.3,2.7,29.85,ENE,67,0.0,-999.0,81,-99.99,,,0.00,Acu-Link.com,2013-02-04 08:13:00,
2013-02-04 02:29:00,7.0,2.2,29.85,North,0,0.0,-999.0,80,-99.99,,,0.00,Acu-Link.com,2013-02-04 08:29:00,
2013-02-04 02:44:00,7.0,2.2,29.85,North,0,1.1,-999.0,80,-99.99,,,0.00,Acu-Link.com,2013-02-04 08:44:00,
2013-02-04 02:59:00,7.0,2.2,29.86,NNW,337,0.0,-999.0,80,-99.99,,,0.00,Acu-Link.com,2013-02-04 08:59:00,
2013-02-04 03:14:00,6.8,2.0,29.86,SSE,157,0.0,-999.0,80,-99.99,,,0.00,Acu-Link.com,2013-02-04 09:14:00,
2013-02-04 03:29:00,6.8,2.0,29.86,North,0,2.2,-999.0,80,-99.99,,,0.00,Acu-Link.com,2013-02-04 09:29:00,
2013-02-04 03:45:00,6.6,1.5,29.86,NE,45,0.0,-999.0,79,-99.99,,,0.00,Acu-Link.com,2013-02-04 09:45:00,
2013-02-04 04:00:00,6.3,0.7,29.86,NE,45,0.0,-999.0,77,-99.99,,,0.00,Acu-Link.com,2013-02-04 10:00:00,
2013-02-04 04:15:00,6.1,0.5,29.87,West,270,0.0,-999.0,77,-99.99,,,0.00,Acu-Link.com,2013-02-04 10:15:00,
2013-02-04 04:30:00,5.7,-0.2,29.87,SW,225,0.0,-999.0,76,-99.99,,,0.00,Acu-Link.com,2013-02-04 10:30:00,
2013-02-04 04:45:00,5.4,-0.5,29.87,West,270,0.0,-999.0,76,-99.99,,,0.00,Acu-Link.com,2013-02-04 10:45:00,
2013-02-04 05:01:00,4.8,-1.1,29.87,WSW,247,0.0,-999.0,76,-99.99,,,0.00,Acu-Link.com,2013-02-04 11:01:00,
2013-02-04 05:16:00,4.3,-1.6,29.87,NNE,22,0.0,-999.0,76,-99.99,,,0.00,Acu-Link.com,2013-02-04 11:16:00,
2013-02-04 05:31:00,3.2,-2.6,29.88,ENE,67,0.0,-999.0,76,-99.99,,,0.00,Acu-Link.com,2013-02-04 11:31:00,
2013-02-04 05:46:00,1.9,-3.9,29.89,ESE,112,0.0,-999.0,76,-99.99,,,0.00,Acu-Link.com,2013-02-04 11:46:00,
2013-02-04 06:01:00,0.1,-5.6,29.89,SW,225,0.0,-999.0,76,-99.99,,,0.00,Acu-Link.com,2013-02-04 12:01:00,
2013-02-04 06:17:00,-0.9,-6.3,29.89,SW,225,0.0,-999.0,77,-99.99,,,0.00,Acu-Link.com,2013-02-04 12:17:00,
2013-02-04 06:32:00,-1.7,-6.1,29.88,North,0,0.0,-999.0,81,-99.99,,,0.00,Acu-Link.com,2013-02-04 12:32:00,
2013-02-04 06:47:00,-2.4,-7.3,29.89,SW,225,0.0,-999.0,79,-99.99,,,0.00,Acu-Link.com,2013-02-04 12:47:00,
2013-02-04 07:02:00,-4.0,-8.8,29.89,SSW,202,0.0,-999.0,79,-99.99,,,0.00,Acu-Link.com,2013-02-04 13:02:00,
2013-02-04 07:18:00,-4.4,-9.2,29.89,North,0,0.0,-999.0,79,-99.99,,,0.00,Acu-Link.com,2013-02-04 13:18:00,
2013-02-04 07:33:00,-5.1,-9.9,29.89,WSW,247,0.0,-999.0,79,-99.99,,,0.00,Acu-Link.com,2013-02-04 13:33:00,
2013-02-04 07:48:00,-5.6,-10.4,29.90,ENE,67,0.0,-999.0,79,-99.99,,,0.00,Acu-Link.com,2013-02-04 13:48:00,
2013-02-04 08:03:00,-5.6,-9.4,29.90,NE,45,0.0,-999.0,83,-99.99,,,0.00,Acu-Link.com,2013-02-04 14:03:00,
2013-02-04 08:18:00,-4.0,-7.8,29.91,WSW,247,0.0,-999.0,83,-99.99,,,0.00,Acu-Link.com,2013-02-04 14:18:00,
2013-02-04 08:34:00,-2.0,-6.4,29.91,SW,225,0.0,-999.0,81,-99.99,,,0.00,Acu-Link.com,2013-02-04 14:34:00,
2013-02-04 08:49:00,0.9,-4.1,29.92,ESE,112,0.0,-999.0,79,-99.99,,,0.00,Acu-Link.com,2013-02-04 14:49:00,
2013-02-04 09:04:00,2.3,-3.2,29.92,SW,225,0.0,-999.0,77,-99.99,,,0.00,Acu-Link.com,2013-02-04 15:04:00,
2013-02-04 09:19:00,3.6,-3.1,29.91,WNW,292,0.0,-999.0,73,-99.99,,,0.00,Acu-Link.com,2013-02-04 15:19:00,
2013-02-04 09:34:00,5.2,-2.4,29.91,SSW,202,0.0,-999.0,70,-99.99,,,0.00,Acu-Link.com,2013-02-04 15:34:00,
2013-02-04 09:50:00,6.8,-1.5,29.91,North,0,0.0,-999.0,68,-99.99,,,0.00,Acu-Link.com,2013-02-04 15:50:00,
2013-02-04 10:05:00,7.3,-1.6,29.92,NNE,22,0.0,-999.0,66,-99.99,,,0.00,Acu-Link.com,2013-02-04 16:05:00,
2013-02-04 10:20:00,7.5,-1.8,29.90,ENE,67,2.7,-999.0,65,-99.99,,,0.00,Acu-Link.com,2013-02-04 16:20:00,
2013-02-04 10:35:00,9.0,-0.3,29.89,North,0,1.1,-999.0,65,-99.99,,,0.00,Acu-Link.com,2013-02-04 16:35:00,
2013-02-04 10:50:00,10.4,1.3,29.88,ESE,112,1.1,-999.0,66,-99.99,,,0.00,Acu-Link.com,2013-02-04 16:50:00,
2013-02-04 11:06:00,10.2,0.5,29.88,NNW,337,2.2,-999.0,64,-99.99,,,0.00,Acu-Link.com,2013-02-04 17:06:00,
2013-02-04 11:21:00,10.9,1.1,29.89,ENE,67,3.2,-999.0,64,-99.99,,,0.00,Acu-Link.com,2013-02-04 17:21:00,
2013-02-04 11:36:00,10.6,1.2,29.89,SSE,157,3.7,-999.0,65,-99.99,,,0.00,Acu-Link.com,2013-02-04 17:36:00,
2013-02-04 11:51:00,10.4,1.3,29.88,NNE,22,2.2,-999.0,66,-99.99,,,0.00,Acu-Link.com,2013-02-04 17:51:00,
2013-02-04 12:07:00,12.9,2.4,29.88,SSW,202,3.7,-999.0,62,-99.99,,,0.00,Acu-Link.com,2013-02-04 18:07:00,
2013-02-04 12:22:00,13.8,2.9,29.87,ESE,112,0.0,-999.0,61,-99.99,,,0.00,Acu-Link.com,2013-02-04 18:22:00,
2013-02-04 12:37:00,11.8,2.0,29.87,East,90,1.7,-999.0,64,-99.99,,,0.00,Acu-Link.com,2013-02-04 18:37:00,
2013-02-04 12:52:00,13.3,3.4,29.86,West,270,1.7,-999.0,64,-99.99,,,0.00,Acu-Link.com,2013-02-04 18:52:00,
2013-02-04 13:07:00,12.2,3.0,29.85,East,90,4.7,-999.0,66,-99.99,,,0.00,Acu-Link.com,2013-02-04 19:07:00,
2013-02-04 13:23:00,11.7,2.6,29.81,SSW,202,8.3,-999.0,66,-99.99,,,0.00,Acu-Link.com,2013-02-04 19:23:00,
2013-02-04 13:38:00,12.6,3.4,29.78,SE,135,4.2,-999.0,66,-99.99,,,0.00,Acu-Link.com,2013-02-04 19:38:00,
2013-02-04 13:53:00,12.6,3.4,29.79,NE,45,4.7,-999.0,66,-99.99,,,0.00,Acu-Link.com,2013-02-04 19:53:00,
2013-02-04 14:08:00,14.2,3.9,29.80,East,90,2.7,-999.0,63,-99.99,,,0.00,Acu-Link.com,2013-02-04 20:08:00,
2013-02-04 14:23:00,14.0,4.1,29.80,South,180,2.7,-999.0,64,-99.99,,,0.00,Acu-Link.com,2013-02-04 20:23:00,
2013-02-04 14:39:00,12.9,3.1,29.80,South,180,3.2,-999.0,64,-99.99,,,0.00,Acu-Link.com,2013-02-04 20:39:00,
2013-02-04 14:54:00,13.3,3.4,29.80,West,270,1.1,-999.0,64,-99.99,,,0.00,Acu-Link.com,2013-02-04 20:54:00,
2013-02-04 15:09:00,12.2,3.7,29.80,SSW,202,1.7,-999.0,68,-99.99,,,0.00,Acu-Link.com,2013-02-04 21:09:00,
2013-02-04 15:24:00,11.5,3.0,29.81,SSE,157,3.2,-999.0,68,-99.99,,,0.00,Acu-Link.com,2013-02-04 21:24:00,
2013-02-04 15:39:00,13.1,4.2,29.81,West,270,2.2,-999.0,67,-99.99,,,0.00,Acu-Link.com,2013-02-04 21:39:00,
2013-02-04 15:55:00,10.9,3.4,29.80,West,270,0.0,-999.0,71,-99.99,,,0.00,Acu-Link.com,2013-02-04 21:55:00,
2013-02-04 16:10:00,10.8,3.6,29.80,East,90,3.2,-999.0,72,-99.99,,,0.00,Acu-Link.com,2013-02-04 22:10:00,
2013-02-04 16:25:00,10.8,3.9,29.78,South,180,2.7,-999.0,73,-99.99,,,0.00,Acu-Link.com,2013-02-04 22:25:00,
2013-02-04 16:40:00,10.6,3.7,29.77,SSW,202,2.2,-999.0,73,-99.99,,,0.00,Acu-Link.com,2013-02-04 22:40:00,
2013-02-04 16:56:00,9.9,3.3,29.75,NE,45,1.1,-999.0,74,-99.99,,,0.00,Acu-Link.com,2013-02-04 22:56:00,
2013-02-04 17:11:00,9.5,2.9,29.74,West,270,1.1,-999.0,74,-99.99,,,0.00,Acu-Link.com,2013-02-04 23:11:00,
2013-02-04 17:26:00,9.3,2.7,29.74,SE,135,1.7,-999.0,74,-99.99,,,0.00,Acu-Link.com,2013-02-04 23:26:00,
2013-02-04 17:41:00,9.0,2.7,29.72,East,90,3.2,-999.0,75,-99.99,,,0.00,Acu-Link.com,2013-02-04 23:41:00,
2013-02-04 17:57:00,8.6,2.3,29.71,NE,45,4.2,-999.0,75,-99.99,,,0.00,Acu-Link.com,2013-02-04 23:57:00,
2013-02-04 18:12:00,8.6,2.6,29.70,NE,45,3.2,-999.0,76,-99.99,,,0.00,Acu-Link.com,2013-02-05 00:12:00,
2013-02-04 18:27:00,8.4,2.4,29.71,ENE,67,4.2,-999.0,76,-99.99,,,0.00,Acu-Link.com,2013-02-05 00:27:00,
2013-02-04 18:42:00,8.4,2.4,29.70,North,0,2.2,-999.0,76,-99.99,,,0.00,Acu-Link.com,2013-02-05 00:42:00,
2013-02-04 18:58:00,8.6,2.9,29.69,ENE,67,3.2,-999.0,77,-99.99,,,0.00,Acu-Link.com,2013-02-05 00:58:00,
2013-02-04 19:13:00,8.6,2.9,29.70,ESE,112,1.7,-999.0,77,-99.99,,,0.00,Acu-Link.com,2013-02-05 01:13:00,
2013-02-04 19:28:00,9.0,3.3,29.70,SSW,202,1.7,-999.0,77,-99.99,,,0.00,Acu-Link.com,2013-02-05 01:28:00,
2013-02-04 19:43:00,9.1,3.4,29.69,NE,45,3.2,-999.0,77,-99.99,,,0.00,Acu-Link.com,2013-02-05 01:43:00,
2013-02-04 19:58:00,9.3,3.6,29.69,NE,45,4.2,-999.0,77,-99.99,,,0.00,Acu-Link.com,2013-02-05 01:58:00,
2013-02-04 20:14:00,9.5,4.6,29.69,NNW,337,1.7,-999.0,80,-99.99,,,0.00,Acu-Link.com,2013-02-05 02:14:00,
2013-02-04 20:29:00,9.9,5.3,29.68,ESE,112,2.2,-999.0,81,-99.99,,,0.00,Acu-Link.com,2013-02-05 02:29:00,
2013-02-04 20:44:00,10.0,5.9,29.67,South,180,3.7,-999.0,83,-99.99,,,0.00,Acu-Link.com,2013-02-05 02:44:00,
2013-02-04 20:59:00,10.6,6.5,29.66,ESE,112,2.7,-999.0,83,-99.99,,,0.00,Acu-Link.com,2013-02-05 02:59:00,
2013-02-04 21:14:00,11.1,7.0,29.65,East,90,2.7,-999.0,83,-99.99,,,0.00,Acu-Link.com,2013-02-05 03:14:00,
2013-02-04 21:30:00,11.7,7.6,29.63,East,90,4.7,-999.0,83,-99.99,,,0.00,Acu-Link.com,2013-02-05 03:30:00,
2013-02-04 21:45:00,12.2,8.3,29.61,SE,135,2.7,-999.0,84,-99.99,,,0.00,Acu-Link.com,2013-02-05 03:45:00,
2013-02-04 22:00:00,12.9,9.0,29.60,ESE,112,4.2,-999.0,84,-99.99,,,0.00,Acu-Link.com,2013-02-05 04:00:00,
2013-02-04 22:15:00,13.6,9.9,29.57,SW,225,1.7,-999.0,85,-99.99,,,0.00,Acu-Link.com,2013-02-05 04:15:00,
2013-02-04 22:30:00,14.4,10.7,29.57,East,90,4.2,-999.0,85,-99.99,,,0.00,Acu-Link.com,2013-02-05 04:30:00,
2013-02-04 22:46:00,15.3,11.6,29.57,SSE,157,2.7,-999.0,85,-99.99,,,0.00,Acu-Link.com,2013-02-05 04:46:00,
2013-02-04 23:01:00,16.0,12.3,29.55,South,180,3.7,-999.0,85,-99.99,,,0.00,Acu-Link.com,2013-02-05 05:01:00,
2013-02-04 23:16:00,16.5,13.1,29.55,NE,45,2.2,-999.0,86,-99.99,,,0.00,Acu-Link.com,2013-02-05 05:16:00,
2013-02-04 23:31:00,17.1,13.6,29.54,SW,225,4.2,-999.0,86,-99.99,,,0.00,Acu-Link.com,2013-02-05 05:31:00,
2013-02-04 23:46:00,17.2,13.7,29.55,WSW,247,1.7,-999.0,86,-99.99,,,0.00,Acu-Link.com,2013-02-05 05:46:00,